Sanborn, Nebraska
Current Conditions -  °F | °C
As of 1:35 AM on Wednesday 26 Nov 2014 (Local Time) from K2V5 Reporting Station
Overcast Overcast  
Wind Chill: 25°   Ceiling: 5500
Heat Index: 35°   Visibility: 10mi
Dew Point: 31°   Wind: 15mph
Humidity: 85%   Direction: 290°WNW
Pressure: 30.1"   Gusts: 22mph
Location:  40.1596°N, 101.947°W
Report Text: K2V5 260835Z AUTO 29013G19KT 10SM OVC055 02/M01 A3010 RMK AO2 T00151007
Loading
Personal Weather Stations






























Interactive Weather Map New forecast layout! Learn more

10-Day Weather Forecast

Advertisements
Track Severe Weather on mobile